Time;durP1;ratioP1;P1;durP2;ratioP2;P2;SDS_P1;SDS_P2;PMS_P1;PMS_P2;Temp;Humidity;BMP_temperature;BMP_pressure;BME280_temperature;BME280_humidity;BME280_pressure;Samples;Min_cycle;Max_cycle;Signal;HPM_P1;HPM_P2
2022/05/22 00:00:47;;;;;;;;;6.00;4.75;;;;;21.55;38.21;101260.84;4944121;28;45231;-46
2022/05/22 00:03:13;;;;;;;;;4.50;4.50;;;;;21.53;38.09;101259.16;4939419;28;45401;-48
2022/05/22 00:05:38;;;;;;;;;3.00;3.00;;;;;21.52;37.94;101249.41;4942946;28;46104;-48
2022/05/22 00:08:04;;;;;;;;;4.25;4.25;;;;;21.49;38.25;101252.25;4943822;28;45164;-50
2022/05/22 00:10:29;;;;;;;;;7.25;4.50;;;;;21.47;38.64;101246.09;4943728;28;45224;-49
2022/05/22 00:12:55;;;;;;;;;5.00;4.00;;;;;21.44;38.62;101257.81;4926445;28;45655;-49
2022/05/22 00:15:20;;;;;;;;;6.00;5.00;;;;;21.41;38.14;101256.16;4943411;28;45980;-48
2022/05/22 00:17:46;;;;;;;;;3.75;3.75;;;;;21.37;38.37;101245.72;4943819;28;45465;-48
2022/05/22 00:20:12;;;;;;;;;6.00;5.00;;;;;21.34;38.33;101237.88;4945505;28;45339;-48
2022/05/22 00:22:37;;;;;;;;;6.00;6.00;;;;;21.30;38.75;101245.16;4943794;28;45302;-45
2022/05/22 00:25:05;;;;;;;;;4.50;3.25;;;;;21.29;38.46;101247.94;4943211;28;45371;-49
2022/05/22 00:27:31;;;;;;;;;5.50;5.50;;;;;21.27;39.10;101248.88;4943420;28;45538;-51
2022/05/22 00:29:56;;;;;;;;;4.50;4.50;;;;;21.24;38.47;101245.47;4943439;28;45502;-47
2022/05/22 00:32:22;;;;;;;;;3.75;3.75;;;;;21.22;38.95;101236.66;4943496;28;45229;-46
2022/05/22 00:34:47;;;;;;;;;4.50;4.50;;;;;21.19;39.20;101243.03;4943233;28;46194;-50
2022/05/22 00:37:13;;;;;;;;;4.75;4.75;;;;;21.17;39.16;101236.03;4943152;28;45224;-49
2022/05/22 00:39:38;;;;;;;;;5.75;5.75;;;;;21.14;38.73;101236.22;4943405;28;45238;-50
2022/05/22 00:42:14;;;;;;;;;5.00;4.50;;;;;21.09;39.18;101234.66;4938841;28;45292;-51
2022/05/22 00:44:40;;;;;;;;;5.75;4.25;;;;;21.08;39.38;101230.25;4938502;28;46178;-48
2022/05/22 00:47:05;;;;;;;;;5.75;4.00;;;;;21.04;39.08;101231.34;4936513;28;45310;-48
2022/05/22 00:49:33;;;;;;;;;4.00;4.00;;;;;21.04;39.44;101233.13;4938759;28;45324;-49
2022/05/22 00:52:04;;;;;;;;;5.50;4.75;;;;;21.01;39.13;101236.81;4936648;28;45259;-49
2022/05/22 00:54:39;;;;;;;;;4.00;4.00;;;;;20.99;39.12;101230.69;4943153;28;46151;-48
2022/05/22 00:57:17;;;;;;;;;5.50;4.00;;;;;20.94;39.63;101216.69;4942809;28;45669;-50
2022/05/22 00:59:50;;;;;;;;;5.75;5.75;;;;;20.93;39.15;101221.19;4943064;28;45346;-50
2022/05/22 01:02:16;;;;;;;;;4.50;4.50;;;;;20.91;39.58;101214.19;4938358;28;45414;-46
2022/05/22 01:04:44;;;;;;;;;6.00;5.25;;;;;20.89;39.60;101214.28;4934616;28;47065;-50
2022/05/22 01:07:11;;;;;;;;;3.00;3.00;;;;;20.86;39.96;101200.22;4925316;28;45827;-47
2022/05/22 01:09:36;;;;;;;;;8.25;6.00;;;;;20.85;39.23;101201.16;4938461;28;45245;-46
2022/05/22 01:12:10;;;;;;;;;7.50;5.00;;;;;20.82;39.32;101199.50;4924064;28;45858;-49
2022/05/22 01:14:36;;;;;;;;;6.00;6.00;;;;;20.80;40.00;101200.50;4942851;28;45234;-49
2022/05/22 01:17:07;;;;;;;;;4.00;3.75;;;;;20.76;39.67;101189.13;4925431;28;45292;-50
2022/05/22 01:19:33;;;;;;;;;7.75;4.50;;;;;20.75;39.76;101185.59;4942630;28;45329;-49
2022/05/22 01:22:15;;;;;;;;;5.00;5.00;;;;;20.72;39.63;101183.06;4942463;28;45334;-49
2022/05/22 01:24:41;;;;;;;;;4.00;4.00;;;;;20.72;40.14;101182.22;4942479;28;46995;-48
2022/05/22 01:27:13;;;;;;;;;4.00;4.00;;;;;20.69;40.01;101180.53;4941843;28;45350;-49
2022/05/22 01:29:38;;;;;;;;;7.00;5.25;;;;;20.68;39.48;101175.25;4942762;28;45262;-49
2022/05/22 01:32:04;;;;;;;;;4.75;4.25;;;;;20.66;40.24;101174.47;4942494;28;45369;-50
2022/05/22 01:34:30;;;;;;;;;5.25;5.25;;;;;20.64;40.32;101177.22;4942447;28;45358;-50
2022/05/22 01:36:55;;;;;;;;;3.25;3.25;;;;;20.60;40.33;101167.63;4937869;28;45365;-46
2022/05/22 01:39:21;;;;;;;;;4.75;3.50;;;;;20.60;40.28;101175.63;4938630;28;45639;-48
2022/05/22 01:41:47;;;;;;;;;4.00;4.00;;;;;20.57;40.02;101171.31;4942325;28;45410;-48
2022/05/22 01:44:12;;;;;;;;;5.75;5.00;;;;;20.54;40.43;101175.94;4942123;28;46030;-47
2022/05/22 01:46:37;;;;;;;;;6.75;5.00;;;;;20.50;40.02;101169.88;4942520;28;45401;-47
2022/05/22 01:49:03;;;;;;;;;6.00;5.00;;;;;20.50;40.08;101169.00;4942343;28;45271;-48
2022/05/22 01:51:33;;;;;;;;;6.00;6.00;;;;;20.46;40.64;101165.63;4942131;28;45436;-48
2022/05/22 01:54:01;;;;;;;;;4.25;3.50;;;;;20.47;40.55;101175.38;4942171;28;45230;-50
2022/05/22 01:56:28;;;;;;;;;4.00;4.00;;;;;20.44;40.14;101172.88;4942016;28;45350;-47
2022/05/22 01:58:53;;;;;;;;;5.50;4.75;;;;;20.42;40.64;101174.72;4942017;28;45251;-46
2022/05/22 02:01:18;;;;;;;;;6.00;5.00;;;;;20.37;40.58;101166.94;4924701;28;45335;-49
2022/05/22 02:03:43;;;;;;;;;6.75;5.00;;;;;20.35;40.21;101160.84;4941516;28;46179;-49
2022/05/22 02:06:09;;;;;;;;;7.00;6.00;;;;;20.34;40.77;101161.78;4941834;28;45363;-47
2022/05/22 02:08:34;;;;;;;;;5.00;5.00;;;;;20.33;40.28;101156.50;4942059;28;45502;-48
2022/05/22 02:11:03;;;;;;;;;3.50;3.50;;;;;20.28;40.35;101162.91;4941968;28;45369;-45
2022/05/22 02:13:32;;;;;;;;;5.00;5.00;;;;;20.26;40.36;101166.59;4941948;28;45415;-49
2022/05/22 02:15:57;;;;;;;;;5.50;4.00;;;;;20.23;40.43;101156.94;4941900;28;45431;-48
2022/05/22 02:18:23;;;;;;;;;4.25;4.25;;;;;20.21;40.52;101155.28;4924596;28;45439;-47
2022/05/22 02:20:48;;;;;;;;;4.75;4.75;;;;;20.20;40.53;101157.09;4943634;28;45445;-49
2022/05/22 02:23:15;;;;;;;;;4.00;4.00;;;;;20.17;41.03;101165.22;4941626;28;46244;-46
2022/05/22 02:25:46;;;;;;;;;2.25;2.25;;;;;20.15;40.68;101169.81;4941728;28;45352;-47
2022/05/22 02:28:14;;;;;;;;;4.00;4.00;;;;;20.12;41.00;101165.47;4942002;28;45389;-48
2022/05/22 02:30:42;;;;;;;;;6.50;4.75;;;;;20.10;40.79;101166.47;4941691;28;45405;-48
2022/05/22 02:33:07;;;;;;;;;4.25;3.75;;;;;20.08;41.16;101163.00;4941467;28;46425;-49
2022/05/22 02:35:33;;;;;;;;;5.00;4.25;;;;;20.03;40.78;101160.56;4924218;28;45241;-45
2022/05/22 02:37:58;;;;;;;;;4.25;4.25;;;;;20.02;41.06;101163.31;4941374;28;45371;-46
2022/05/22 02:40:26;;;;;;;;;5.00;5.00;;;;;20.01;40.87;101158.91;4940851;28;45428;-49
2022/05/22 02:42:53;;;;;;;;;4.75;4.75;;;;;19.97;41.29;101151.06;4937076;28;45470;-48
2022/05/22 02:45:21;;;;;;;;;5.00;5.00;;;;;19.96;40.84;101159.09;4933347;28;45390;-47
2022/05/22 02:47:47;;;;;;;;;4.00;4.00;;;;;19.93;40.97;101165.44;4941405;28;45180;-48
2022/05/22 02:50:14;;;;;;;;;7.00;4.75;;;;;19.92;41.22;101173.53;4941279;28;45433;-45
2022/05/22 02:52:40;;;;;;;;;5.00;4.50;;;;;19.88;41.50;101180.81;4941412;28;46268;-48
2022/05/22 02:55:08;;;;;;;;;6.00;5.00;;;;;19.84;41.08;101181.91;4941354;28;45329;-47
2022/05/22 02:57:34;;;;;;;;;5.25;5.25;;;;;19.81;41.14;101188.19;4936826;28;45366;-47
2022/05/22 03:00:00;;;;;;;;;6.25;5.25;;;;;19.78;41.20;101185.66;4933863;28;45323;-46
2022/05/22 03:02:25;;;;;;;;;5.00;3.25;;;;;19.74;41.15;101188.56;4936694;28;46609;-48
2022/05/22 03:04:50;;;;;;;;;7.00;5.00;;;;;19.71;41.48;101186.00;4933461;28;45152;-46
2022/05/22 03:07:18;;;;;;;;;6.25;5.25;;;;;19.71;41.59;101191.34;4936856;28;45417;-44
2022/05/22 03:09:45;;;;;;;;;8.00;7.25;;;;;19.70;41.49;101184.28;4933987;28;45235;-49
2022/05/22 03:12:14;;;;;;;;;5.00;5.00;;;;;19.65;41.65;101188.03;4940999;28;45331;-46
2022/05/22 03:14:51;;;;;;;;;3.75;3.75;;;;;19.63;41.47;101184.59;4941163;28;45393;-47
2022/05/22 03:17:18;;;;;;;;;4.75;4.75;;;;;19.60;41.76;101182.03;4941324;28;45499;-48
2022/05/22 03:19:43;;;;;;;;;4.50;4.50;;;;;19.63;41.63;101183.69;4943031;28;45468;-47
2022/05/22 03:22:10;;;;;;;;;7.00;4.75;;;;;19.61;41.68;101177.59;4940879;28;45212;-46
2022/05/22 03:24:36;;;;;;;;;3.50;3.50;;;;;19.61;41.28;101169.59;4937873;28;45387;-50
2022/05/22 03:27:06;;;;;;;;;4.25;4.25;;;;;19.59;41.19;101161.66;4941362;28;45341;-49
2022/05/22 03:29:32;;;;;;;;;5.00;5.00;;;;;19.59;41.44;101150.13;4940911;28;45328;-46
2022/05/22 03:31:57;;;;;;;;;6.00;3.00;;;;;19.57;41.49;101139.56;4940955;28;45240;-46
2022/05/22 03:34:23;;;;;;;;;4.75;4.75;;;;;19.57;41.91;101139.56;4940914;28;45212;-50
2022/05/22 03:36:49;;;;;;;;;5.75;5.75;;;;;19.55;41.72;101140.56;4941012;28;45156;-48
2022/05/22 03:39:14;;;;;;;;;5.25;4.00;;;;;19.55;42.04;101143.22;4940883;28;45235;-47
2022/05/22 03:41:41;;;;;;;;;5.00;5.00;;;;;19.55;41.53;101143.22;4940888;28;45207;-49
2022/05/22 03:44:06;;;;;;;;;6.00;6.00;;;;;19.54;41.58;101130.81;4940816;28;46567;-48
2022/05/22 03:46:32;;;;;;;;;6.00;5.00;;;;;19.52;41.50;101138.00;4940987;28;45316;-47
2022/05/22 03:48:58;;;;;;;;;6.50;5.00;;;;;19.52;41.69;101138.91;4940745;28;45371;-46
2022/05/22 03:51:24;;;;;;;;;4.00;3.25;;;;;19.49;41.85;101133.69;4943104;28;46197;-49
2022/05/22 03:53:49;;;;;;;;;7.00;5.25;;;;;19.49;42.12;101141.69;4943834;28;45455;-48
2022/05/22 03:56:17;;;;;;;;;8.25;5.75;;;;;19.46;41.70;101145.34;4944139;28;45397;-49
2022/05/22 03:58:43;;;;;;;;;3.50;3.50;;;;;19.42;42.01;101134.88;4943875;28;45389;-50
2022/05/22 04:01:09;;;;;;;;;7.00;5.00;;;;;19.43;42.03;101131.28;4943917;28;45331;-47
2022/05/22 04:03:35;;;;;;;;;6.50;6.00;;;;;19.41;42.22;101127.84;4943846;28;45525;-49
2022/05/22 04:06:02;;;;;;;;;5.00;4.00;;;;;19.39;42.02;101127.91;4943879;28;45497;-49
2022/05/22 04:08:29;;;;;;;;;3.50;3.50;;;;;19.38;41.88;101120.84;4943551;28;45351;-50
2022/05/22 04:10:55;;;;;;;;;8.50;6.00;;;;;19.37;41.94;101120.91;4943635;28;45358;-51
2022/05/22 04:13:21;;;;;;;;;4.50;4.00;;;;;19.36;42.23;101119.19;4943869;28;45402;-47
2022/05/22 04:15:46;;;;;;;;;7.25;5.00;;;;;19.35;42.36;101117.47;4939504;28;45271;-47
2022/05/22 04:18:14;;;;;;;;;6.50;6.00;;;;;19.33;42.27;101106.84;4939069;28;45228;-49
2022/05/22 04:20:39;;;;;;;;;6.00;5.25;;;;;19.32;42.10;101105.16;4945559;28;47073;-49
2022/05/22 04:25:57;;;;;;;;;5.50;5.50;;;;;19.31;42.44;101092.75;4943767;28;45217;-46
2022/05/22 04:28:27;;;;;;;;;8.00;7.00;;;;;19.31;42.49;101108.75;4943694;28;45172;-47
2022/05/22 04:30:53;;;;;;;;;7.00;6.25;;;;;19.30;42.51;101101.69;4943481;28;46140;-50
2022/05/22 04:33:18;;;;;;;;;8.25;7.25;;;;;19.30;42.47;101107.88;4943395;28;45311;-49
2022/05/22 04:35:44;;;;;;;;;3.25;3.25;;;;;19.30;42.48;101112.34;4943472;28;45304;-47
2022/05/22 04:38:10;;;;;;;;;5.50;5.50;;;;;19.31;42.78;101108.75;4943385;28;45309;-45
2022/05/22 04:40:37;;;;;;;;;5.00;5.00;;;;;19.30;42.20;101109.69;4938805;28;46470;-49
2022/05/22 04:43:04;;;;;;;;;8.25;6.25;;;;;19.30;42.58;101107.88;4943047;28;45285;-46
2022/05/22 04:45:30;;;;;;;;;7.00;7.00;;;;;19.31;42.60;101109.59;4943422;28;45410;-46
2022/05/22 04:47:55;;;;;;;;;6.00;6.00;;;;;19.33;42.59;101117.50;4943131;28;45319;-50
2022/05/22 04:50:21;;;;;;;;;7.00;6.00;;;;;19.32;42.86;101105.16;4942909;28;45327;-48
2022/05/22 04:52:46;;;;;;;;;7.75;6.00;;;;;19.32;42.71;101113.16;4943117;28;45294;-49
2022/05/22 04:55:12;;;;;;;;;7.00;6.00;;;;;19.33;42.57;101115.75;4938634;28;46558;-48
2022/05/22 04:57:37;;;;;;;;;7.50;6.25;;;;;19.33;42.49;101122.84;4938185;28;45525;-47
2022/05/22 05:00:05;;;;;;;;;5.75;5.50;;;;;19.35;42.57;101128.13;4936263;28;46908;-47
2022/05/22 05:02:31;;;;;;;;;4.00;4.00;;;;;19.35;42.79;101128.97;4941976;28;45314;-51
2022/05/22 05:04:57;;;;;;;;;5.50;4.25;;;;;19.36;42.79;101124.50;4942902;28;45216;-51
2022/05/22 05:07:24;;;;;;;;;4.25;4.25;;;;;19.32;42.31;101126.47;4943175;28;45244;-49
2022/05/22 05:09:50;;;;;;;;;3.25;3.25;;;;;19.40;42.84;101136.78;4942551;28;45301;-46
2022/05/22 05:12:16;;;;;;;;;6.00;4.50;;;;;19.42;42.79;101126.91;4942816;28;45400;-47
2022/05/22 05:14:42;;;;;;;;;4.25;3.00;;;;;19.42;43.02;101122.44;4942957;28;45342;-48
2022/05/22 05:17:13;;;;;;;;;4.75;4.75;;;;;19.43;42.66;101121.53;4938379;28;45516;-46
2022/05/22 05:19:39;;;;;;;;;4.25;2.75;;;;;19.46;42.41;101131.19;4938808;28;46259;-48
2022/05/22 05:22:05;;;;;;;;;6.25;4.25;;;;;19.47;42.55;101120.44;4942608;28;45220;-48
2022/05/22 05:24:30;;;;;;;;;4.00;3.00;;;;;19.49;42.33;101121.22;4942795;28;45233;-50
2022/05/22 05:26:55;;;;;;;;;3.75;3.00;;;;;19.49;42.34;101118.56;4925768;28;45484;-50
2022/05/22 05:29:25;;;;;;;;;7.75;6.00;;;;;19.53;42.32;101111.28;4942381;28;45475;-49
2022/05/22 05:31:52;;;;;;;;;4.00;4.00;;;;;19.57;42.36;101120.00;4942802;28;45220;-46
2022/05/22 05:34:17;;;;;;;;;2.50;2.00;;;;;19.58;42.37;101117.25;4925349;28;45207;-50
2022/05/22 05:36:43;;;;;;;;;5.75;3.00;;;;;19.61;41.93;101125.13;4942238;28;45550;-46
2022/05/22 05:39:09;;;;;;;;;4.00;4.00;;;;;19.65;42.47;101131.19;4942262;28;45739;-47
2022/05/22 05:41:35;;;;;;;;;2.50;1.75;;;;;19.68;42.43;101133.69;4942342;28;45219;-49
2022/05/22 05:44:05;;;;;;;;;3.75;3.00;;;;;19.69;42.22;101132.78;4942330;28;45279;-49
2022/05/22 05:46:32;;;;;;;;;2.00;2.00;;;;;19.75;42.41;101135.16;4942284;28;45280;-47
2022/05/22 05:48:58;;;;;;;;;6.50;4.00;;;;;19.75;42.45;101126.31;4941985;28;46656;-47
2022/05/22 05:51:24;;;;;;;;;3.00;3.00;;;;;19.80;41.83;101133.13;4942040;28;45323;-48
2022/05/22 05:53:49;;;;;;;;;1.00;1.00;;;;;19.81;41.96;101140.22;4942369;28;45234;-47
2022/05/22 05:56:14;;;;;;;;;2.00;2.00;;;;;19.85;42.26;101142.75;4937804;28;45542;-48
2022/05/22 05:58:40;;;;;;;;;2.25;2.25;;;;;19.87;42.29;101140.88;4936506;28;46074;-49
2022/05/22 06:01:05;;;;;;;;;3.25;3.25;;;;;19.89;42.21;101137.22;4942257;28;45363;-50
2022/05/22 06:03:31;;;;;;;;;2.00;2.00;;;;;19.90;41.84;101120.28;4942299;28;45296;-50
2022/05/22 06:05:57;;;;;;;;;2.75;2.75;;;;;19.92;42.41;101109.53;4941987;28;45557;-50
2022/05/22 06:08:22;;;;;;;;;2.00;2.00;;;;;19.95;41.71;101109.41;4941721;28;46005;-48
2022/05/22 06:10:48;;;;;;;;;2.50;2.50;;;;;19.97;41.77;101115.50;4941913;28;45457;-47
2022/05/22 06:13:13;;;;;;;;;3.75;3.25;;;;;19.97;42.07;101110.16;4941772;28;45235;-47
2022/05/22 06:15:38;;;;;;;;;1.00;1.00;;;;;20.02;41.83;101105.47;4942085;28;45228;-49
2022/05/22 06:18:04;;;;;;;;;2.25;2.00;;;;;20.04;41.68;101111.63;4941797;28;45685;-48
2022/05/22 06:20:29;;;;;;;;;3.00;1.75;;;;;20.07;42.11;101105.25;4943953;28;45460;-47
2022/05/22 06:22:55;;;;;;;;;3.50;2.00;;;;;20.08;42.23;101088.31;4942105;28;45228;-45
2022/05/22 06:25:20;;;;;;;;;1.50;1.25;;;;;20.09;41.92;101074.91;4921292;28;45451;-46
2022/05/22 06:27:46;;;;;;;;;2.00;2.00;;;;;20.13;41.90;101071.13;4940724;28;47127;-45
2022/05/22 06:30:13;;;;;;;;;3.75;3.75;;;;;20.17;41.51;101063.00;4941934;28;45346;-49
2022/05/22 06:32:40;;;;;;;;;4.25;4.25;;;;;20.17;42.11;101052.34;4941755;28;45244;-47
2022/05/22 06:35:08;;;;;;;;;2.00;2.00;;;;;20.21;41.57;101053.91;4941565;28;45456;-46
2022/05/22 06:37:34;;;;;;;;;3.75;2.25;;;;;20.25;42.06;101044.78;4938431;28;46453;-47
2022/05/22 06:39:59;;;;;;;;;2.25;2.25;;;;;20.26;41.88;101038.53;4941511;28;45409;-48
2022/05/22 06:42:34;;;;;;;;;3.00;2.00;;;;;20.32;41.84;101032.88;4941717;28;45335;-48
2022/05/22 06:44:59;;;;;;;;;2.25;1.25;;;;;20.35;41.76;101038.06;4941684;28;45348;-48
2022/05/22 06:47:28;;;;;;;;;4.75;3.00;;;;;20.39;41.68;101022.75;4941115;28;46060;-48
2022/05/22 06:49:54;;;;;;;;;2.50;2.50;;;;;20.43;41.65;101011.84;4941401;28;45350;-49
2022/05/22 06:52:21;;;;;;;;;3.00;3.00;;;;;20.48;41.36;101018.75;4941500;28;45360;-49
2022/05/22 06:54:46;;;;;;;;;3.50;3.00;;;;;20.51;41.97;101032.78;4941387;28;45355;-47
2022/05/22 06:57:15;;;;;;;;;2.00;2.00;;;;;20.55;41.50;101038.84;4940982;28;46252;-47
2022/05/22 06:59:40;;;;;;;;;2.00;2.00;;;;;20.58;41.79;101039.56;4941620;28;45414;-49
2022/05/22 07:02:06;;;;;;;;;2.00;2.00;;;;;20.62;41.26;101027.75;4941326;28;45224;-49
2022/05/22 07:04:31;;;;;;;;;3.00;3.00;;;;;20.67;41.63;101030.22;4941479;28;45156;-48
2022/05/22 07:06:57;;;;;;;;;4.00;2.00;;;;;20.73;41.55;101043.28;4940970;28;46332;-49
2022/05/22 07:09:22;;;;;;;;;2.75;2.75;;;;;20.78;41.41;101038.56;4941243;28;45461;-56
2022/05/22 07:11:49;;;;;;;;;2.50;2.50;;;;;20.82;41.88;101051.72;4941134;28;45652;-50
2022/05/22 07:14:15;;;;;;;;;3.25;3.25;;;;;20.84;41.21;101056.06;4941288;28;45416;-49
2022/05/22 07:16:40;;;;;;;;;2.25;2.00;;;;;20.89;41.18;101046.00;4940882;28;45367;-50
2022/05/22 07:19:08;;;;;;;;;3.50;2.50;;;;;20.93;41.29;101042.22;4941015;28;45446;-45
2022/05/22 07:21:33;;;;;;;;;3.00;3.00;;;;;20.98;41.19;101025.97;4941664;28;45403;-48
2022/05/22 07:24:01;;;;;;;;;4.75;3.50;;;;;21.00;41.18;101026.72;4941216;28;45290;-49
2022/05/22 07:26:28;;;;;;;;;2.75;1.25;;;;;21.04;41.65;101019.41;4943671;28;47018;-46
2022/05/22 07:28:54;;;;;;;;;3.25;3.00;;;;;21.06;41.62;101015.72;4944288;28;45194;-48
2022/05/22 07:31:22;;;;;;;;;3.00;3.00;;;;;21.11;41.66;101020.81;4944312;28;45449;-48
2022/05/22 07:33:48;;;;;;;;;2.50;2.00;;;;;21.14;41.15;101019.78;4944551;28;45300;-49
2022/05/22 07:36:14;;;;;;;;;2.00;2.00;;;;;21.19;41.61;101009.72;4943856;28;46103;-50
2022/05/22 07:38:40;;;;;;;;;3.25;3.25;;;;;21.22;41.05;101006.84;4944239;28;45398;-50
2022/05/22 07:41:05;;;;;;;;;4.00;2.25;;;;;21.25;41.04;101006.69;4944169;28;45406;-46
2022/05/22 07:43:30;;;;;;;;;5.50;3.00;;;;;21.30;41.66;101017.16;4944284;28;45521;-48
2022/05/22 07:45:56;;;;;;;;;3.00;3.00;;;;;21.34;41.61;101016.88;4944122;28;45309;-45
2022/05/22 07:48:22;;;;;;;;;4.50;4.00;;;;;21.39;41.29;101020.16;4944085;28;45495;-46
2022/05/22 07:50:54;;;;;;;;;2.50;2.00;;;;;21.46;41.21;101014.47;4943956;28;45240;-51
2022/05/22 07:53:20;;;;;;;;;6.50;5.50;;;;;21.54;41.48;101022.94;4944099;28;45516;-48
2022/05/22 07:55:45;;;;;;;;;7.50;7.50;;;;;21.57;41.49;101014.75;4943606;28;45315;-49
2022/05/22 07:58:11;;;;;;;;;4.75;3.50;;;;;21.66;41.19;101024.97;4939507;28;45334;-47
2022/05/22 08:00:36;;;;;;;;;3.00;3.00;;;;;21.75;41.27;101020.91;4941668;28;45607;-48
2022/05/22 08:03:13;;;;;;;;;3.75;3.00;;;;;21.83;41.03;101007.09;4944038;28;45290;-48
2022/05/22 08:05:39;;;;;;;;;4.75;2.00;;;;;21.90;40.76;100992.41;4939076;28;47304;-46
2022/05/22 08:08:05;;;;;;;;;3.00;2.75;;;;;21.97;41.16;100980.38;4936246;28;45236;-49
2022/05/22 08:10:31;;;;;;;;;3.50;3.50;;;;;22.02;41.28;100982.78;4926614;28;45276;-47
2022/05/22 08:12:56;;;;;;;;;3.50;3.50;;;;;22.08;41.02;100985.97;4943849;28;45385;-45
2022/05/22 08:15:24;;;;;;;;;2.00;2.00;;;;;22.18;41.10;100983.63;4943641;28;45308;-46
2022/05/22 08:17:50;;;;;;;;;4.00;4.00;;;;;22.27;41.34;100974.19;4943657;28;46322;-48
2022/05/22 08:20:18;;;;;;;;;3.00;3.00;;;;;22.35;41.32;100966.56;4945397;28;45247;-46
2022/05/22 08:22:45;;;;;;;;;4.75;4.00;;;;;22.43;40.98;100962.56;4943581;28;45541;-48
2022/05/22 08:25:17;;;;;;;;;3.00;3.00;;;;;22.52;40.88;100957.53;4938802;28;47478;-47
2022/05/22 08:27:43;;;;;;;;;5.00;2.50;;;;;22.59;40.64;100947.31;4938064;28;45351;-48
2022/05/22 08:30:11;;;;;;;;;2.75;2.75;;;;;22.72;41.04;100950.94;4943590;28;45244;-47
2022/05/22 08:32:38;;;;;;;;;6.00;3.50;;;;;22.83;40.69;100954.75;4943431;28;45366;-47
2022/05/22 08:35:05;;;;;;;;;3.25;3.25;;;;;22.90;40.74;100950.75;4943186;28;46211;-45
2022/05/22 08:37:32;;;;;;;;;3.75;3.00;;;;;23.00;40.31;100948.34;4942792;28;45309;-46
2022/05/22 08:39:58;;;;;;;;;3.75;3.75;;;;;23.09;40.79;100944.22;4943353;28;45224;-48
2022/05/22 08:42:35;;;;;;;;;5.25;4.25;;;;;23.18;40.61;100946.34;4939782;28;45240;-49
2022/05/22 08:45:05;;;;;;;;;2.00;2.00;;;;;23.25;40.27;100941.47;4943406;28;46854;-46
2022/05/22 08:47:58;;;;;;;;;3.75;3.50;;;;;23.31;40.35;100955.31;4941420;28;46999;-47
2022/05/22 08:50:24;;;;;;;;;3.25;2.75;;;;;23.38;40.29;100950.41;4943048;28;45477;-47
2022/05/22 08:52:59;;;;;;;;;5.00;2.75;;;;;23.44;40.63;100936.59;4943155;28;45394;-48
2022/05/22 09:01:17;;;;;;;;;4.25;3.75;;;;;23.65;40.11;100934.34;4943244;28;45297;-48
2022/05/22 09:03:54;;;;;;;;;4.50;3.50;;;;;23.72;40.02;100934.78;4943007;28;45556;-50
2022/05/22 09:06:29;;;;;;;;;3.25;3.00;;;;;23.80;40.06;100940.50;4925322;28;47401;-48
2022/05/22 09:08:54;;;;;;;;;5.75;5.75;;;;;23.87;40.11;100951.69;4942663;28;45240;-51
2022/05/22 09:11:46;;;;;;;;;3.25;3.25;;;;;23.91;39.86;100942.50;4942922;28;45973;-47
2022/05/22 09:14:26;;;;;;;;;3.00;3.00;;;;;23.95;39.66;100935.97;4942970;28;45220;-51
2022/05/22 09:17:13;;;;;;;;;3.00;3.00;;;;;24.04;39.67;100939.84;4938137;28;46173;-48
2022/05/22 09:19:42;;;;;;;;;2.25;2.25;;;;;24.10;39.48;100930.50;4939050;28;45501;-50
2022/05/22 09:22:23;;;;;;;;;2.75;2.75;;;;;24.15;39.51;100931.94;4942834;28;45348;-48
2022/05/22 09:25:11;;;;;;;;;4.00;4.00;;;;;24.18;39.58;100923.66;4942379;28;45507;-49
2022/05/22 09:27:48;;;;;;;;;3.50;3.50;;;;;24.26;39.43;100922.25;4942308;28;45241;-49
2022/05/22 09:30:33;;;;;;;;;4.25;3.00;;;;;24.37;39.55;100918.84;4942603;28;45250;-50
2022/05/22 09:33:32;;;;;;;;;3.00;3.00;;;;;24.45;39.38;100917.34;4942543;28;45240;-50
2022/05/22 09:36:35;;;;;;;;;7.00;6.25;;;;;24.56;39.08;100911.19;4924774;28;45433;-47
2022/05/22 09:39:36;;;;;;;;;2.75;2.75;;;;;24.63;39.10;100907.13;4942157;28;46346;-46
2022/05/22 09:42:48;;;;;;;;;5.00;3.50;;;;;24.67;39.06;100907.78;4942275;28;45224;-49
2022/05/22 09:45:22;;;;;;;;;2.25;2.00;;;;;24.70;38.62;100906.72;4942545;28;45272;-50
2022/05/22 09:48:10;;;;;;;;;1.25;1.25;;;;;24.71;38.64;100897.69;4937069;28;45384;-47
2022/05/22 09:50:46;;;;;;;;;3.00;3.00;;;;;24.70;38.75;100890.59;4936931;28;45397;-49
2022/05/22 09:53:37;;;;;;;;;4.75;3.00;;;;;24.70;38.68;100886.06;4942253;28;45276;-50
2022/05/22 09:56:27;;;;;;;;;2.75;2.75;;;;;24.70;38.25;100890.59;4942129;28;45254;-50
2022/05/22 09:59:13;;;;;;;;;16.00;13.25;;;;;24.68;38.50;100888.03;4941827;28;45429;-48
2022/05/22 10:01:45;;;;;;;;;9.50;7.50;;;;;24.65;38.48;100882.84;4924353;28;46126;-46
2022/05/22 10:04:13;;;;;;;;;9.00;9.00;;;;;24.62;38.62;100877.69;4941926;28;45228;-49
2022/05/22 10:06:48;;;;;;;;;3.00;3.00;;;;;24.58;38.73;100858.25;4941838;28;45240;-46
2022/05/22 10:09:32;;;;;;;;;2.00;2.00;;;;;24.55;38.03;100844.16;4941997;28;45300;-49
2022/05/22 10:12:13;;;;;;;;;4.50;3.25;;;;;24.52;38.30;100841.72;4941575;28;46148;-48
2022/05/22 10:14:48;;;;;;;;;5.75;5.50;;;;;24.49;38.24;100830.22;4941844;28;45372;-49
2022/05/22 10:17:16;;;;;;;;;4.75;4.00;;;;;24.46;38.26;100825.03;4942007;28;45512;-48
2022/05/22 10:20:00;;;;;;;;;3.75;3.50;;;;;24.44;38.09;100821.63;4943706;28;45402;-47
2022/05/22 10:22:49;;;;;;;;;3.25;3.25;;;;;24.42;38.27;100820.03;4941509;28;46097;-47
2022/05/22 10:25:17;;;;;;;;;5.25;5.00;;;;;24.41;38.22;100826.34;4941541;28;45236;-48
2022/05/22 10:27:55;;;;;;;;;6.00;4.50;;;;;24.39;38.31;100815.72;4942217;28;45415;-47
2022/05/22 10:30:28;;;;;;;;;4.50;3.00;;;;;24.37;38.12;100806.91;4941659;28;45319;-46
2022/05/22 10:33:07;;;;;;;;;5.25;5.00;;;;;24.34;38.04;100808.00;4941582;28;45507;-48
2022/05/22 10:35:38;;;;;;;;;4.25;4.25;;;;;24.34;38.19;100810.69;4941576;28;45239;-47
2022/05/22 10:38:30;;;;;;;;;4.75;3.00;;;;;24.33;38.44;100794.69;4941756;28;45453;-48
2022/05/22 10:43:45;;;;;;;;;8.00;7.75;;;;;24.29;38.19;100775.25;4941620;28;45709;-47
2022/05/22 10:46:10;;;;;;;;;6.50;6.25;;;;;24.26;38.54;100774.59;4941355;28;45378;-48
2022/05/22 10:48:50;;;;;;;;;6.25;4.25;;;;;24.24;38.53;100761.28;4937204;28;45616;-46
2022/05/22 10:51:53;;;;;;;;;3.75;3.75;;;;;24.22;38.53;100760.53;4929145;28;45257;-49
2022/05/22 10:54:25;;;;;;;;;6.25;4.00;;;;;24.18;38.42;100751.84;4941266;28;45236;-49
2022/05/22 10:56:51;;;;;;;;;4.75;4.75;;;;;24.15;38.25;100741.34;4941154;28;45326;-48
2022/05/22 10:59:22;;;;;;;;;6.00;5.75;;;;;24.13;38.41;100734.38;4941071;28;45247;-49
2022/05/22 11:02:00;;;;;;;;;7.25;6.75;;;;;24.10;38.34;100722.03;4944336;28;45255;-49
2022/05/22 11:04:38;;;;;;;;;3.25;3.25;;;;;24.08;38.79;100701.63;4944715;28;46081;-47
2022/05/22 11:07:06;;;;;;;;;6.25;5.25;;;;;24.05;38.45;100702.72;4944565;28;45493;-46
2022/05/22 11:09:40;;;;;;;;;5.75;4.00;;;;;24.03;38.61;100699.25;4940245;28;45456;-49
2022/05/22 11:12:10;;;;;;;;;7.00;4.00;;;;;24.01;38.35;100693.13;4943055;28;45240;-50
2022/05/22 11:14:36;;;;;;;;;6.00;5.00;;;;;23.98;38.46;100696.06;4944258;28;45240;-46
2022/05/22 11:17:11;;;;;;;;;5.50;5.50;;;;;23.95;38.46;100721.28;4944390;28;45341;-48
2022/05/22 11:19:40;;;;;;;;;8.00;6.00;;;;;23.93;38.58;100739.31;4946268;28;45216;-48
2022/05/22 11:22:27;;;;;;;;;5.00;5.00;;;;;23.93;38.66;100771.50;4944605;28;45344;-49
2022/05/22 11:25:20;;;;;;;;;5.50;4.00;;;;;23.93;38.45;100776.88;4943930;28;45398;-45
2022/05/22 11:28:04;;;;;;;;;5.75;5.50;;;;;23.94;38.40;100770.56;4944629;28;45269;-47
2022/05/22 11:30:45;;;;;;;;;6.25;4.75;;;;;23.97;38.42;100762.28;4944442;28;45316;-50
2022/05/22 11:33:50;;;;;;;;;5.50;5.50;;;;;24.00;38.57;100743.28;4944213;28;45377;-50
2022/05/22 11:36:29;;;;;;;;;4.00;4.00;;;;;23.99;38.72;100725.47;4943440;28;45248;-48
2022/05/22 11:39:22;;;;;;;;;5.00;5.00;;;;;24.06;38.61;100733.06;4944181;28;45223;-46
2022/05/22 11:42:10;;;;;;;;;6.00;6.00;;;;;24.12;38.52;100732.66;4939654;28;45362;-50
2022/05/22 11:45:06;;;;;;;;;7.00;6.75;;;;;24.19;38.90;100723.19;4942575;28;45552;-48
2022/05/22 11:47:50;;;;;;;;;6.00;4.75;;;;;24.25;38.55;100725.44;4943817;28;46497;-50